createdAt,value
2019-05-17T00:02:26.414Z,99927.77
2019-05-17T00:04:56.867Z,99924.99
2019-05-17T00:07:32.557Z,99925.31
2019-05-17T00:10:02.692Z,99929.14
2019-05-17T00:12:32.348Z,99935.29
2019-05-17T00:15:07.095Z,99932.56
2019-05-17T00:17:49.219Z,99937.39
2019-05-17T00:20:26.632Z,99932.79
2019-05-17T00:22:57.397Z,99929.45
2019-05-17T00:25:27.517Z,99926.81
2019-05-17T00:28:41.570Z,99923.48
2019-05-17T00:31:11.906Z,99916.19
2019-05-17T00:33:41.583Z,99912.09
2019-05-17T00:36:13.150Z,99916.29
2019-05-17T00:38:50.954Z,99908.51
2019-05-17T00:41:22.825Z,99909.83
2019-05-17T00:43:54.225Z,99906.02
2019-05-17T00:46:32.843Z,99898.91
2019-05-17T00:49:06.742Z,99900.89
2019-05-17T00:51:36.917Z,99899.88
2019-05-17T00:54:09.595Z,99897.16
2019-05-17T00:56:42.635Z,99895.73
2019-05-17T00:59:18.684Z,99897.35
2019-05-17T01:01:49.342Z,99892.33
2019-05-17T01:04:20.036Z,99892.42
2019-05-17T01:06:49.793Z,99891.77
2019-05-17T01:09:27.324Z,99881.63
2019-05-17T01:12:01.926Z,99877.92
2019-05-17T01:14:46.569Z,99879.00
2019-05-17T01:17:16.807Z,99885.84
2019-05-17T01:19:57.206Z,99885.75
2019-05-17T01:22:28.275Z,99882.31
2019-05-17T01:24:58.655Z,99878.41
2019-05-17T01:27:31.115Z,99876.53
2019-05-17T01:30:13.001Z,99874.39
2019-05-17T01:32:43.315Z,99881.70
2019-05-17T01:35:17.001Z,99875.96
2019-05-17T01:37:47.706Z,99873.44
2019-05-17T01:40:18.627Z,99869.03
2019-05-17T01:42:48.306Z,99864.72
2019-05-17T01:45:18.587Z,99870.71
2019-05-17T01:47:51.096Z,99858.49
2019-05-17T01:50:21.188Z,99850.59
2019-05-17T01:52:51.103Z,99852.38
2019-05-17T01:55:22.861Z,99852.28
2019-05-17T01:58:03.026Z,99847.36
2019-05-17T02:00:46.450Z,99846.29
2019-05-17T02:03:14.655Z,99843.66
2019-05-17T02:05:44.170Z,99843.88
2019-05-17T02:08:13.821Z,99840.40
2019-05-17T02:10:46.592Z,99831.42
2019-05-17T02:13:16.572Z,99836.81
2019-05-17T02:15:51.492Z,99835.59
2019-05-17T02:18:21.915Z,99833.84
2019-05-17T02:20:53.588Z,99826.50
2019-05-17T02:23:23.203Z,99828.78
2019-05-17T02:25:57.156Z,99826.88
2019-05-17T02:28:27.975Z,99830.36
2019-05-17T02:30:58.650Z,99826.15
2019-05-17T02:33:28.351Z,99818.72
2019-05-17T02:35:57.962Z,99819.19
2019-05-17T02:38:27.570Z,99809.23
2019-05-17T02:40:57.326Z,99811.05
2019-05-17T02:43:33.878Z,99819.91
2019-05-17T02:46:04.136Z,99811.05
2019-05-17T02:48:42.784Z,99805.53
2019-05-17T02:51:13.310Z,99804.69
2019-05-17T02:53:43.452Z,99815.36
2019-05-17T02:56:16.210Z,99807.11
2019-05-17T02:58:45.906Z,99806.85
2019-05-17T03:01:17.568Z,99805.19
2019-05-17T03:03:47.429Z,99804.47
2019-05-17T03:06:17.928Z,99799.80
2019-05-17T03:08:52.262Z,99798.69
2019-05-17T03:11:22.678Z,99801.45
2019-05-17T03:14:35.874Z,99802.52
2019-05-17T03:17:05.587Z,99810.42
2019-05-17T03:19:43.723Z,99804.21
2019-05-17T03:22:17.511Z,99805.27
2019-05-17T03:25:13.208Z,99809.61
2019-05-17T03:27:42.863Z,99813.19
2019-05-17T03:30:16.909Z,99815.10
2019-05-17T03:32:47.724Z,99819.77
2019-05-17T03:35:27.346Z,99814.84
2019-05-17T03:37:58.012Z,99813.66
2019-05-17T03:41:17.151Z,99810.89
2019-05-17T03:43:30.640Z,99813.91
2019-05-17T03:46:02.731Z,99814.00
2019-05-17T03:48:33.364Z,99808.84
2019-05-17T03:51:03.059Z,99808.84
2019-05-17T03:53:33.661Z,99805.86
2019-05-17T03:56:05.124Z,99811.69
2019-05-17T03:58:38.946Z,99808.83
2019-05-17T04:01:08.597Z,99805.45
2019-05-17T04:03:43.100Z,99810.01
2019-05-17T04:06:13.351Z,99808.89
2019-05-17T04:08:43.087Z,99813.69
2019-05-17T04:11:25.776Z,99804.53
2019-05-17T04:13:44.693Z,99804.52
2019-05-17T04:16:14.512Z,99806.41
2019-05-17T04:18:46.009Z,99807.35
2019-05-17T04:21:23.395Z,99802.61
2019-05-17T04:24:19.429Z,99803.52
2019-05-17T04:26:52.005Z,99802.13
2019-05-17T04:29:22.687Z,99801.97
2019-05-17T04:31:54.637Z,99804.77
2019-05-17T04:34:24.384Z,99804.09
2019-05-17T04:36:54.056Z,99801.91
2019-05-17T04:39:23.859Z,99798.34
2019-05-17T04:41:54.920Z,99803.25
2019-05-17T04:44:24.691Z,99807.70
2019-05-17T04:46:54.182Z,99807.77
2019-05-17T04:49:24.456Z,99806.11
2019-05-17T04:51:54.246Z,99806.69
2019-05-17T04:54:24.056Z,99811.39
2019-05-17T04:56:54.197Z,99809.63
2019-05-17T04:59:24.478Z,99813.31
2019-05-17T05:01:54.390Z,99802.75
2019-05-17T05:04:23.950Z,99810.78
2019-05-17T05:06:53.467Z,99807.90
2019-05-17T05:09:23.565Z,99806.75
2019-05-17T05:12:00.826Z,99800.72
2019-05-17T05:14:24.829Z,99798.25
2019-05-17T05:16:54.259Z,99805.66
2019-05-17T05:19:23.755Z,99795.36
2019-05-17T05:21:53.946Z,99800.38
2019-05-17T05:24:23.447Z,99799.48
2019-05-17T05:26:53.144Z,99801.19
2019-05-17T05:29:22.519Z,99793.16
2019-05-17T05:31:52.219Z,99791.05
2019-05-17T05:34:22.013Z,99786.91
2019-05-17T05:36:52.572Z,99787.23
2019-05-17T05:39:22.827Z,99781.32
2019-05-17T05:42:06.089Z,99781.61
2019-05-17T05:44:23.654Z,99772.66
2019-05-17T05:46:53.339Z,99773.04
2019-05-17T05:49:23.119Z,99773.74
2019-05-17T05:51:52.994Z,99775.08
2019-05-17T05:54:22.613Z,99770.68
2019-05-17T05:56:53.212Z,99773.41
2019-05-17T05:59:22.757Z,99776.77
2019-05-17T06:01:52.701Z,99782.30
2019-05-17T06:04:22.356Z,99780.49
2019-05-17T06:06:52.285Z,99781.62
2019-05-17T06:09:22.526Z,99773.25
2019-05-17T06:11:52.169Z,99773.11
2019-05-17T06:14:21.747Z,99766.24
2019-05-17T06:16:51.988Z,99769.28
2019-05-17T06:19:22.447Z,99772.72
2019-05-17T06:21:52.223Z,99768.81
2019-05-17T06:24:22.802Z,99768.12
2019-05-17T06:26:52.572Z,99770.41
2019-05-17T06:29:22.589Z,99762.13
2019-05-17T06:31:52.257Z,99764.77
2019-05-17T06:34:22.468Z,99768.59
2019-05-17T06:36:52.831Z,99767.28
2019-05-17T06:39:22.567Z,99769.92
2019-05-17T06:41:52.335Z,99771.73
2019-05-17T06:44:21.776Z,99758.45
2019-05-17T06:46:51.899Z,99764.86
2019-05-17T06:49:22.553Z,99771.78
2019-05-17T06:51:52.623Z,99762.50
2019-05-17T06:54:22.930Z,99767.03
2019-05-17T06:56:52.715Z,99759.80
2019-05-17T06:59:22.220Z,99760.39
2019-05-17T07:01:52.289Z,99761.42
2019-05-17T07:04:21.726Z,99760.19
2019-05-17T07:07:10.792Z,99757.30
2019-05-17T07:09:40.545Z,99760.94
2019-05-17T07:12:10.628Z,99755.27
2019-05-17T07:14:40.617Z,99762.80
2019-05-17T07:17:10.056Z,99759.79
2019-05-17T07:19:40.175Z,99759.24
2019-05-17T07:22:09.733Z,99764.61
2019-05-17T07:24:39.800Z,99758.89
2019-05-17T07:27:10.115Z,99758.11
2019-05-17T07:29:40.461Z,99758.42
2019-05-17T07:32:09.971Z,99762.45
2019-05-17T07:34:40.114Z,99748.62
2019-05-17T07:37:10.460Z,99755.74
2019-05-17T07:39:42.284Z,99756.89
2019-05-17T07:42:12.349Z,99747.20
2019-05-17T07:44:44.085Z,99739.15
2019-05-17T07:47:14.084Z,99738.58
2019-05-17T07:49:44.110Z,99741.17
2019-05-17T07:52:13.876Z,99747.66
2019-05-17T07:54:43.558Z,99746.13
2019-05-17T07:57:15.601Z,99755.05
2019-05-17T07:59:47.559Z,99749.81
2019-05-17T08:02:30.678Z,99754.98
2019-05-17T08:05:06.261Z,99744.30
2019-05-17T08:07:41.966Z,99732.22
2019-05-17T08:10:12.775Z,99732.70
2019-05-17T08:12:42.612Z,99740.08
2019-05-17T08:15:12.504Z,99740.63
2019-05-17T08:17:42.525Z,99741.53
2019-05-17T08:20:13.224Z,99742.86
2019-05-17T08:22:42.841Z,99734.75
2019-05-17T08:25:13.496Z,99737.27
2019-05-17T08:27:44.307Z,99743.63
2019-05-17T08:30:17.030Z,99732.05
2019-05-17T08:32:46.797Z,99731.08
2019-05-17T08:35:17.009Z,99737.16
2019-05-17T08:37:46.764Z,99740.84
2019-05-17T08:40:20.039Z,99734.87
2019-05-17T08:42:49.888Z,99726.06
2019-05-17T08:45:20.773Z,99724.67
2019-05-17T08:47:53.378Z,99721.84
2019-05-17T08:50:24.322Z,99724.69
2019-05-17T08:52:54.040Z,99721.91
2019-05-17T08:55:23.761Z,99714.49
2019-05-17T08:57:54.247Z,99699.39
2019-05-17T09:00:24.507Z,99691.88
2019-05-17T09:02:54.477Z,99688.98
2019-05-17T09:05:25.045Z,99695.98
2019-05-17T09:07:55.744Z,99684.31
2019-05-17T09:10:26.481Z,99687.87
2019-05-17T09:12:56.434Z,99686.81
2019-05-17T09:15:26.510Z,99681.36
2019-05-17T09:17:56.496Z,99680.98
2019-05-17T09:20:26.667Z,99677.00
2019-05-17T09:22:56.972Z,99668.88
2019-05-17T09:25:27.109Z,99668.38
2019-05-17T09:27:56.923Z,99660.56
2019-05-17T09:30:31.401Z,99659.97
2019-05-17T09:33:00.451Z,99659.52
2019-05-17T09:35:30.656Z,99658.56
2019-05-17T09:38:00.702Z,99659.71
2019-05-17T09:40:31.089Z,99650.13
2019-05-17T09:43:03.925Z,99645.44
2019-05-17T09:45:35.012Z,99651.70
2019-05-17T09:48:05.217Z,99652.95
2019-05-17T09:50:35.854Z,99641.20
2019-05-17T09:53:05.655Z,99646.66
2019-05-17T09:55:35.645Z,99637.59
2019-05-17T09:58:06.972Z,99636.09
2019-05-17T10:00:38.095Z,99628.06
2019-05-17T10:03:10.036Z,99628.37
2019-05-17T10:05:41.059Z,99627.13
2019-05-17T10:08:11.177Z,99623.91
2019-05-17T10:10:41.465Z,99626.28
2019-05-17T10:13:11.886Z,99617.08
2019-05-17T10:15:42.060Z,99608.28
2019-05-17T10:18:15.439Z,99600.77
2019-05-17T10:20:46.010Z,99607.34
2019-05-17T10:23:19.506Z,99609.94
2019-05-17T10:25:49.029Z,99615.94
2019-05-17T10:28:20.543Z,99610.77
2019-05-17T10:30:52.352Z,99608.07
2019-05-17T10:33:22.251Z,99600.62
2019-05-17T10:35:52.726Z,99596.39
2019-05-17T10:38:22.607Z,99599.78
2019-05-17T10:40:52.590Z,99596.82
2019-05-17T10:43:46.525Z,99602.41
2019-05-17T10:46:16.733Z,99599.39
2019-05-17T10:48:46.959Z,99602.70
2019-05-17T10:51:17.042Z,99588.43
2019-05-17T10:53:47.121Z,99593.70
2019-05-17T10:56:19.438Z,99590.48
2019-05-17T10:58:49.349Z,99592.45
2019-05-17T11:01:20.194Z,99589.23
2019-05-17T11:03:50.410Z,99586.65
2019-05-17T11:06:20.428Z,99585.11
2019-05-17T11:08:50.586Z,99582.20
2019-05-17T11:11:20.687Z,99582.29
2019-05-17T11:13:53.023Z,99578.28
2019-05-17T11:16:22.248Z,99572.66
2019-05-17T11:18:53.197Z,99574.36
2019-05-17T11:21:23.137Z,99569.73
2019-05-17T11:23:53.404Z,99563.72
2019-05-17T11:26:23.279Z,99567.82
2019-05-17T11:28:53.435Z,99568.51
2019-05-17T11:31:24.185Z,99563.34
2019-05-17T11:33:54.214Z,99564.67
2019-05-17T11:36:23.577Z,99568.27
2019-05-17T11:38:52.837Z,99565.23
2019-05-17T11:41:22.426Z,99560.28
2019-05-17T11:43:52.236Z,99562.95
2019-05-17T11:46:35.330Z,99559.09
2019-05-17T11:48:53.470Z,99566.02
2019-05-17T11:51:22.937Z,99548.88
2019-05-17T11:53:52.317Z,99551.37
2019-05-17T11:56:22.120Z,99547.20
2019-05-17T11:58:51.759Z,99546.27
2019-05-17T12:01:21.622Z,99538.73
2019-05-17T12:03:51.498Z,99544.58
2019-05-17T12:06:21.006Z,99540.04
2019-05-17T12:08:50.380Z,99544.19
2019-05-17T12:11:20.081Z,99540.19
2019-05-17T12:13:49.501Z,99543.30
2019-05-17T12:16:19.305Z,99542.28
2019-05-17T12:18:48.761Z,99532.80
2019-05-17T12:21:18.526Z,99531.13
2019-05-17T12:23:48.148Z,99532.69
2019-05-17T12:26:17.872Z,99525.75
2019-05-17T12:28:47.377Z,99524.62
2019-05-17T12:31:19.230Z,99516.80
2019-05-17T12:33:48.607Z,99526.00
2019-05-17T12:36:18.063Z,99526.30
2019-05-17T12:38:49.093Z,99532.66
2019-05-17T12:41:19.050Z,99528.19
2019-05-17T12:43:48.412Z,99521.64
2019-05-17T12:46:18.190Z,99523.52
2019-05-17T12:48:47.553Z,99525.58
2019-05-17T12:51:16.880Z,99514.41
2019-05-17T12:53:46.513Z,99511.43
2019-05-17T12:56:15.902Z,99514.50
2019-05-17T12:58:46.326Z,99518.16
2019-05-17T13:01:16.093Z,99519.02
2019-05-17T13:03:45.892Z,99517.19
2019-05-17T13:06:15.496Z,99517.19
2019-05-17T13:08:45.428Z,99518.86
2019-05-17T13:11:15.165Z,99518.17
2019-05-17T13:13:44.682Z,99515.22
2019-05-17T13:16:18.002Z,99508.30
2019-05-17T13:18:46.823Z,99502.36
2019-05-17T13:21:16.491Z,99501.41
2019-05-17T13:23:45.866Z,99500.55
2019-05-17T13:26:15.470Z,99492.11
2019-05-17T13:28:45.306Z,99484.14
2019-05-17T13:31:15.093Z,99487.20
2019-05-17T13:33:44.601Z,99487.55
2019-05-17T13:36:13.883Z,99482.08
2019-05-17T13:38:43.622Z,99483.52
2019-05-17T13:41:12.908Z,99481.98
2019-05-17T13:43:43.277Z,99477.72
2019-05-17T13:46:13.628Z,99475.21
2019-05-17T13:48:43.904Z,99474.83
2019-05-17T13:51:13.704Z,99469.06
2019-05-17T13:53:43.002Z,99462.84
2019-05-17T13:56:12.719Z,99467.61
2019-05-17T13:58:42.021Z,99461.06
2019-05-17T14:01:11.856Z,99461.42
2019-05-17T14:03:41.507Z,99468.13
2019-05-17T14:06:10.848Z,99447.36
2019-05-17T14:08:40.189Z,99458.91
2019-05-17T14:11:09.520Z,99459.13
2019-05-17T14:13:38.948Z,99453.34
2019-05-17T14:16:08.735Z,99461.36
2019-05-17T14:18:38.193Z,99451.54
2019-05-17T14:21:07.745Z,99444.81
2019-05-17T14:23:37.511Z,99459.41
2019-05-17T14:26:07.059Z,99458.16
2019-05-17T14:28:36.393Z,99454.51
2019-05-17T14:31:06.301Z,99454.30
2019-05-17T14:33:35.728Z,99457.02
2019-05-17T14:36:05.857Z,99448.67
2019-05-17T14:38:36.964Z,99448.05
2019-05-17T14:41:08.497Z,99446.41
2019-05-17T14:43:38.284Z,99441.77
2019-05-17T14:46:07.568Z,99441.22
2019-05-17T14:48:38.106Z,99444.18
2019-05-17T14:51:08.505Z,99451.45
2019-05-17T14:53:38.222Z,99440.55
2019-05-17T14:56:07.775Z,99445.08
2019-05-17T14:58:46.344Z,99438.34
2019-05-17T15:01:16.266Z,99437.42
2019-05-17T15:03:46.587Z,99430.00
2019-05-17T15:06:16.682Z,99429.98
2019-05-17T15:08:46.454Z,99429.89
2019-05-17T15:11:16.902Z,99427.97
2019-05-17T15:13:46.981Z,99418.51
2019-05-17T15:16:16.368Z,99425.91
2019-05-17T15:18:45.983Z,99419.36
2019-05-17T15:21:15.332Z,99426.70
2019-05-17T15:23:44.612Z,99415.98
2019-05-17T15:26:15.141Z,99417.35
2019-05-17T15:28:44.865Z,99415.49
2019-05-17T15:31:14.179Z,99416.31
2019-05-17T15:33:45.512Z,99420.47
2019-05-17T15:36:14.873Z,99418.55
2019-05-17T15:38:44.501Z,99419.53
2019-05-17T15:41:14.314Z,99410.83
2019-05-17T15:43:45.495Z,99414.87
2019-05-17T15:46:14.794Z,99410.65
2019-05-17T15:48:44.646Z,99412.20
2019-05-17T15:51:14.028Z,99404.55
2019-05-17T15:53:43.481Z,99403.95
2019-05-17T15:56:13.494Z,99400.73
2019-05-17T15:58:43.153Z,99399.56
2019-05-17T16:01:13.027Z,99407.77
2019-05-17T16:03:42.469Z,99398.15
2019-05-17T16:06:13.105Z,99391.33
2019-05-17T16:08:42.455Z,99396.68
2019-05-17T16:11:11.819Z,99397.47
2019-05-17T16:16:09.808Z,99386.92
2019-05-17T16:18:39.816Z,99385.64
2019-05-17T16:21:09.443Z,99379.53
2019-05-17T16:23:39.264Z,99386.78
2019-05-17T16:26:08.667Z,99395.78
2019-05-17T16:28:38.229Z,99388.54
2019-05-17T16:31:07.632Z,99392.37
2019-05-17T16:33:37.183Z,99388.58
2019-05-17T16:36:06.856Z,99390.53
2019-05-17T16:38:36.937Z,99384.20
2019-05-17T16:41:06.688Z,99385.34
2019-05-17T16:43:35.934Z,99378.20
2019-05-17T16:46:05.384Z,99378.19
2019-05-17T16:48:35.198Z,99374.16
2019-05-17T16:51:05.548Z,99376.23
2019-05-17T16:53:35.641Z,99376.05
2019-05-17T16:56:05.180Z,99385.67
2019-05-17T16:58:34.887Z,99374.70
2019-05-17T17:01:04.769Z,99375.78
2019-05-17T17:03:44.130Z,99367.38
2019-05-17T17:06:10.131Z,99371.89
2019-05-17T17:08:38.267Z,99372.25
2019-05-17T17:11:07.716Z,99376.55
2019-05-17T17:13:37.084Z,99374.09
2019-05-17T17:16:06.736Z,99374.93
2019-05-17T17:18:37.151Z,99368.42
2019-05-17T17:21:06.820Z,99367.79
2019-05-17T17:23:36.317Z,99368.84
2019-05-17T17:26:06.328Z,99371.62
2019-05-17T17:28:36.489Z,99368.73
2019-05-17T17:31:07.774Z,99364.19
2019-05-17T17:33:37.553Z,99363.36
2019-05-17T17:36:07.391Z,99369.14
2019-05-17T17:38:37.246Z,99366.88
2019-05-17T17:41:07.291Z,99363.77
2019-05-17T17:43:37.421Z,99370.77
2019-05-17T17:46:06.898Z,99362.64
2019-05-17T17:48:36.328Z,99366.45
2019-05-17T17:51:05.971Z,99363.72
2019-05-17T17:53:35.457Z,99366.54
2019-05-17T17:56:05.426Z,99357.69
2019-05-17T17:58:35.735Z,99362.34
2019-05-17T18:01:05.359Z,99357.36
2019-05-17T18:03:34.819Z,99360.13
2019-05-17T18:06:04.691Z,99370.98
2019-05-17T18:08:34.782Z,99367.41
2019-05-17T18:11:04.442Z,99362.08
2019-05-17T18:13:33.724Z,99365.92
2019-05-17T18:16:03.173Z,99365.47
2019-05-17T18:18:32.658Z,99375.52
2019-05-17T18:21:03.294Z,99374.05
2019-05-17T18:23:33.842Z,99372.07
2019-05-17T18:26:03.730Z,99374.53
2019-05-17T18:28:33.096Z,99373.97
2019-05-17T18:31:03.451Z,99372.19
2019-05-17T18:33:32.834Z,99379.45
2019-05-17T18:36:02.879Z,99375.45
2019-05-17T18:38:35.022Z,99373.86
2019-05-17T18:41:08.529Z,99376.08
2019-05-17T18:43:38.333Z,99379.42
2019-05-17T18:46:08.393Z,99379.33
2019-05-17T18:48:37.882Z,99375.75
2019-05-17T18:51:07.737Z,99374.23
2019-05-17T18:53:37.400Z,99370.86
2019-05-17T18:56:07.121Z,99384.70
2019-05-17T18:58:39.512Z,99383.50
2019-05-17T19:01:08.865Z,99380.61
2019-05-17T19:03:38.938Z,99387.93
2019-05-17T19:06:09.528Z,99389.50
2019-05-17T19:08:39.345Z,99389.09
2019-05-17T19:11:09.819Z,99399.98
2019-05-17T19:13:39.176Z,99392.42
2019-05-17T19:16:08.709Z,99394.16
2019-05-17T19:18:38.244Z,99389.58
2019-05-17T19:21:07.900Z,99399.65
2019-05-17T19:23:37.816Z,99403.36
2019-05-17T19:26:07.949Z,99411.38
2019-05-17T19:28:37.348Z,99402.42
2019-05-17T19:31:08.047Z,99408.45
2019-05-17T19:33:37.883Z,99405.13
2019-05-17T19:36:07.756Z,99413.01
2019-05-17T19:38:37.726Z,99414.53
2019-05-17T19:41:07.327Z,99421.42
2019-05-17T19:43:37.268Z,99419.28
2019-05-17T19:46:06.621Z,99416.30
2019-05-17T19:48:39.258Z,99416.97
2019-05-17T19:51:08.537Z,99411.16
2019-05-17T19:53:39.300Z,99413.67
2019-05-17T19:56:09.303Z,99414.86
2019-05-17T19:58:39.183Z,99412.89
2019-05-17T20:01:08.572Z,99405.39
2019-05-17T20:03:40.879Z,99409.23
2019-05-17T20:06:10.806Z,99412.72
2019-05-17T20:08:41.144Z,99411.71
2019-05-17T20:11:10.695Z,99418.36
2019-05-17T20:13:40.865Z,99420.05
2019-05-17T20:16:12.695Z,99417.72
2019-05-17T20:18:42.122Z,99409.41
2019-05-17T20:21:12.551Z,99413.06
2019-05-17T20:23:43.767Z,99411.22
2019-05-17T20:26:13.890Z,99413.69
2019-05-17T20:28:43.681Z,99410.37
2019-05-17T20:31:13.262Z,99419.66
2019-05-17T20:33:43.209Z,99424.66
2019-05-17T20:36:13.196Z,99417.00
2019-05-17T20:38:42.986Z,99423.30
2019-05-17T20:41:13.201Z,99422.66
2019-05-17T20:43:43.687Z,99418.14
2019-05-17T20:46:13.036Z,99413.80
2019-05-17T20:48:42.835Z,99417.93
2019-05-17T20:51:12.233Z,99411.47
2019-05-17T20:53:42.061Z,99408.30
2019-05-17T20:56:11.442Z,99409.92
2019-05-17T20:58:40.877Z,99412.94
2019-05-17T21:01:10.864Z,99410.28
2019-05-17T21:03:40.179Z,99409.08
2019-05-17T21:06:10.912Z,99407.89
2019-05-17T21:08:46.156Z,99406.06
2019-05-17T21:11:14.421Z,99408.02
2019-05-17T21:13:43.824Z,99403.36
2019-05-17T21:16:14.552Z,99405.50
2019-05-17T21:18:44.422Z,99402.30
2019-05-17T21:21:14.530Z,99404.09
2019-05-17T21:23:44.595Z,99405.23
2019-05-17T21:26:15.023Z,99412.02
2019-05-17T21:28:47.200Z,99410.30
2019-05-17T21:31:17.264Z,99408.47
2019-05-17T21:33:46.655Z,99404.00
2019-05-17T21:36:16.391Z,99410.30
2019-05-17T21:38:45.698Z,99409.56
2019-05-17T21:41:15.751Z,99413.54
2019-05-17T21:43:46.016Z,99414.15
2019-05-17T21:46:15.497Z,99412.86
2019-05-17T21:48:45.167Z,99412.81
2019-05-17T21:51:15.108Z,99409.48
2019-05-17T21:53:44.572Z,99410.16
2019-05-17T21:56:14.086Z,99404.50
2019-05-17T21:58:43.857Z,99403.30
2019-05-17T22:01:18.247Z,99406.07
2019-05-17T22:03:47.557Z,99409.00
2019-05-17T22:06:17.273Z,99407.95
2019-05-17T22:08:46.611Z,99401.64
2019-05-17T22:11:16.013Z,99406.90
2019-05-17T22:13:45.726Z,99402.88
2019-05-17T22:16:19.436Z,99402.45
2019-05-17T22:18:47.208Z,99405.95
2019-05-17T22:21:17.333Z,99403.72
2019-05-17T22:23:47.205Z,99405.95
2019-05-17T22:26:16.665Z,99406.22
2019-05-17T22:28:46.417Z,99409.50
2019-05-17T22:31:15.846Z,99408.81
2019-05-17T22:33:45.257Z,99408.06
2019-05-17T22:36:14.631Z,99404.34
2019-05-17T22:38:44.088Z,99408.06
2019-05-17T22:41:13.376Z,99413.52
2019-05-17T22:43:43.015Z,99403.97
2019-05-17T22:46:13.205Z,99401.21
2019-05-17T22:48:43.002Z,99401.48
2019-05-17T22:51:13.432Z,99395.80
2019-05-17T22:53:43.722Z,99398.94
2019-05-17T22:56:13.255Z,99400.41
2019-05-17T22:58:42.678Z,99395.95
2019-05-17T23:01:12.284Z,99394.94
2019-05-17T23:07:10.903Z,99396.59
2019-05-17T23:09:42.268Z,99394.73
2019-05-17T23:12:11.988Z,99398.40
2019-05-17T23:14:41.425Z,99392.09
2019-05-17T23:17:12.634Z,99393.02
2019-05-17T23:19:42.508Z,99385.47
2019-05-17T23:22:11.861Z,99382.24
2019-05-17T23:24:41.770Z,99381.70
2019-05-17T23:27:11.158Z,99385.16
2019-05-17T23:29:41.327Z,99382.57
2019-05-17T23:32:10.873Z,99386.47
2019-05-17T23:34:40.754Z,99389.13
2019-05-17T23:37:10.857Z,99387.69
2019-05-17T23:39:41.448Z,99385.85
2019-05-17T23:42:10.939Z,99385.72
2019-05-17T23:44:42.349Z,99394.95
2019-05-17T23:47:12.395Z,99378.72
2019-05-17T23:49:42.016Z,99386.33
2019-05-17T23:52:12.302Z,99396.91
2019-05-17T23:54:41.962Z,99385.48
2019-05-17T23:57:11.637Z,99385.97
2019-05-17T23:59:41.163Z,99385.64
